Cuba, Alabama
Current Conditions -  °F | °C
As of 1:56 PM on Monday 24 Nov 2014 (Local Time) from KNMM Reporting Station
Scattered Clouds Scattered Clouds  
Wind Chill: 64°   Ceiling: Unl
Heat Index: 64°   Visibility: 10mi
Dew Point: 44°   Wind: 10mph
Humidity: 48%   Direction: 320°NW
Pressure: 29.9"   Gusts: NA
Location:  32.43°N, 88.38°W
Report Text: KNMM 241956Z 32009KT 10SM SCT270 18/07 A2990 RMK AO2 SLP135 T01780067
Loading
Personal Weather Stations






























Interactive Weather Map New forecast layout! Learn more

10-Day Weather Forecast

Advertisements
Track Severe Weather on mobile